sensor_id;sensor_type;location;lat;lon;timestamp;P1;durP1;ratioP1;P2;durP2;ratioP2
77362;SDS011;66428;47.322;9.432;2023-04-15T00:00:57;3.65;;;1.13;;
77362;SDS011;66428;47.322;9.432;2023-04-15T00:03:25;1.85;;;1.02;;
77362;SDS011;66428;47.322;9.432;2023-04-15T00:05:54;1.98;;;1.00;;
77362;SDS011;66428;47.322;9.432;2023-04-15T00:08:23;3.80;;;1.00;;
77362;SDS011;66428;47.322;9.432;2023-04-15T00:10:51;3.42;;;1.08;;
77362;SDS011;66428;47.322;9.432;2023-04-15T00:13:19;1.77;;;0.60;;
77362;SDS011;66428;47.322;9.432;2023-04-15T00:15:46;2.60;;;0.98;;
77362;SDS011;66428;47.322;9.432;2023-04-15T00:18:13;4.85;;;1.00;;
77362;SDS011;66428;47.322;9.432;2023-04-15T00:20:42;2.08;;;1.08;;
77362;SDS011;66428;47.322;9.432;2023-04-15T00:23:08;2.22;;;1.13;;
77362;SDS011;66428;47.322;9.432;2023-04-15T00:25:37;1.63;;;0.95;;
77362;SDS011;66428;47.322;9.432;2023-04-15T00:28:06;1.25;;;0.70;;
77362;SDS011;66428;47.322;9.432;2023-04-15T00:30:38;1.60;;;0.82;;
77362;SDS011;66428;47.322;9.432;2023-04-15T00:33:04;2.13;;;0.63;;
77362;SDS011;66428;47.322;9.432;2023-04-15T00:35:33;1.38;;;0.82;;
77362;SDS011;66428;47.322;9.432;2023-04-15T00:38:02;3.38;;;0.98;;
77362;SDS011;66428;47.322;9.432;2023-04-15T00:40:40;2.20;;;0.75;;
77362;SDS011;66428;47.322;9.432;2023-04-15T00:43:07;1.67;;;0.85;;
77362;SDS011;66428;47.322;9.432;2023-04-15T00:45:36;2.80;;;1.23;;
77362;SDS011;66428;47.322;9.432;2023-04-15T00:48:03;4.43;;;1.42;;
77362;SDS011;66428;47.322;9.432;2023-04-15T00:50:37;2.70;;;1.20;;
77362;SDS011;66428;47.322;9.432;2023-04-15T00:53:06;3.00;;;0.85;;
77362;SDS011;66428;47.322;9.432;2023-04-15T00:55:32;1.58;;;0.80;;
77362;SDS011;66428;47.322;9.432;2023-04-15T01:00:28;2.65;;;1.00;;
77362;SDS011;66428;47.322;9.432;2023-04-15T01:03:00;2.03;;;0.68;;
77362;SDS011;66428;47.322;9.432;2023-04-15T01:05:32;2.30;;;0.90;;
77362;SDS011;66428;47.322;9.432;2023-04-15T01:08:03;0.85;;;0.60;;
77362;SDS011;66428;47.322;9.432;2023-04-15T01:10:30;3.05;;;1.13;;
77362;SDS011;66428;47.322;9.432;2023-04-15T01:12:57;1.90;;;0.80;;
77362;SDS011;66428;47.322;9.432;2023-04-15T01:15:26;2.75;;;0.73;;
77362;SDS011;66428;47.322;9.432;2023-04-15T01:17:58;1.08;;;0.95;;
77362;SDS011;66428;47.322;9.432;2023-04-15T01:20:30;2.03;;;0.75;;
77362;SDS011;66428;47.322;9.432;2023-04-15T01:23:01;1.20;;;0.80;;
77362;SDS011;66428;47.322;9.432;2023-04-15T01:25:33;1.52;;;0.70;;
77362;SDS011;66428;47.322;9.432;2023-04-15T01:28:02;1.77;;;1.05;;
77362;SDS011;66428;47.322;9.432;2023-04-15T01:30:32;1.30;;;0.80;;
77362;SDS011;66428;47.322;9.432;2023-04-15T01:32:59;1.63;;;1.00;;
77362;SDS011;66428;47.322;9.432;2023-04-15T01:35:26;1.42;;;0.88;;
77362;SDS011;66428;47.322;9.432;2023-04-15T01:37:56;2.55;;;0.90;;
77362;SDS011;66428;47.322;9.432;2023-04-15T01:40:29;3.10;;;0.95;;
77362;SDS011;66428;47.322;9.432;2023-04-15T01:42:59;1.80;;;1.00;;
77362;SDS011;66428;47.322;9.432;2023-04-15T01:45:29;1.48;;;0.55;;
77362;SDS011;66428;47.322;9.432;2023-04-15T01:48:00;4.25;;;1.38;;
77362;SDS011;66428;47.322;9.432;2023-04-15T01:50:27;1.63;;;0.82;;
77362;SDS011;66428;47.322;9.432;2023-04-15T01:52:54;1.65;;;0.80;;
77362;SDS011;66428;47.322;9.432;2023-04-15T01:55:20;2.08;;;0.70;;
77362;SDS011;66428;47.322;9.432;2023-04-15T01:57:47;1.50;;;0.90;;
77362;SDS011;66428;47.322;9.432;2023-04-15T02:00:15;2.15;;;0.88;;
77362;SDS011;66428;47.322;9.432;2023-04-15T02:02:47;3.13;;;0.82;;
77362;SDS011;66428;47.322;9.432;2023-04-15T02:05:19;1.10;;;0.68;;
77362;SDS011;66428;47.322;9.432;2023-04-15T02:07:46;2.58;;;1.05;;
77362;SDS011;66428;47.322;9.432;2023-04-15T02:10:13;2.60;;;1.00;;
77362;SDS011;66428;47.322;9.432;2023-04-15T02:12:41;4.13;;;1.10;;
77362;SDS011;66428;47.322;9.432;2023-04-15T02:15:10;2.05;;;1.00;;
77362;SDS011;66428;47.322;9.432;2023-04-15T02:17:40;1.63;;;1.10;;
77362;SDS011;66428;47.322;9.432;2023-04-15T02:20:13;1.48;;;0.82;;
77362;SDS011;66428;47.322;9.432;2023-04-15T02:22:45;1.45;;;0.80;;
77362;SDS011;66428;47.322;9.432;2023-04-15T02:25:14;2.13;;;1.10;;
77362;SDS011;66428;47.322;9.432;2023-04-15T02:27:44;1.35;;;0.98;;
77362;SDS011;66428;47.322;9.432;2023-04-15T02:30:15;3.78;;;1.20;;
77362;SDS011;66428;47.322;9.432;2023-04-15T02:32:47;1.38;;;0.80;;
77362;SDS011;66428;47.322;9.432;2023-04-15T02:35:16;2.03;;;1.02;;
77362;SDS011;66428;47.322;9.432;2023-04-15T02:37:45;2.30;;;1.40;;
77362;SDS011;66428;47.322;9.432;2023-04-15T02:40:11;1.45;;;1.05;;
77362;SDS011;66428;47.322;9.432;2023-04-15T02:42:40;1.42;;;0.65;;
77362;SDS011;66428;47.322;9.432;2023-04-15T02:45:12;1.60;;;0.82;;
77362;SDS011;66428;47.322;9.432;2023-04-15T02:47:42;4.15;;;0.57;;
77362;SDS011;66428;47.322;9.432;2023-04-15T02:50:14;2.20;;;1.00;;
77362;SDS011;66428;47.322;9.432;2023-04-15T02:52:41;1.55;;;0.88;;
77362;SDS011;66428;47.322;9.432;2023-04-15T02:55:10;3.22;;;0.90;;
77362;SDS011;66428;47.322;9.432;2023-04-15T02:57:38;1.92;;;0.88;;
77362;SDS011;66428;47.322;9.432;2023-04-15T03:00:09;3.17;;;1.20;;
77362;SDS011;66428;47.322;9.432;2023-04-15T03:02:40;1.48;;;0.80;;
77362;SDS011;66428;47.322;9.432;2023-04-15T03:05:29;2.08;;;1.00;;
77362;SDS011;66428;47.322;9.432;2023-04-15T03:07:59;1.98;;;1.08;;
77362;SDS011;66428;47.322;9.432;2023-04-15T03:10:29;2.40;;;0.93;;
77362;SDS011;66428;47.322;9.432;2023-04-15T03:12:55;1.67;;;0.80;;
77362;SDS011;66428;47.322;9.432;2023-04-15T03:15:22;3.72;;;1.35;;
77362;SDS011;66428;47.322;9.432;2023-04-15T03:17:53;2.35;;;1.08;;
77362;SDS011;66428;47.322;9.432;2023-04-15T03:20:25;4.25;;;1.25;;
77362;SDS011;66428;47.322;9.432;2023-04-15T03:22:52;2.70;;;1.15;;
77362;SDS011;66428;47.322;9.432;2023-04-15T03:25:24;1.45;;;1.05;;
77362;SDS011;66428;47.322;9.432;2023-04-15T03:27:58;2.15;;;1.05;;
77362;SDS011;66428;47.322;9.432;2023-04-15T03:30:25;1.92;;;0.93;;
77362;SDS011;66428;47.322;9.432;2023-04-15T03:32:52;6.93;;;1.45;;
77362;SDS011;66428;47.322;9.432;2023-04-15T03:35:21;1.90;;;1.10;;
77362;SDS011;66428;47.322;9.432;2023-04-15T03:37:50;3.60;;;1.13;;
77362;SDS011;66428;47.322;9.432;2023-04-15T03:42:49;2.30;;;0.82;;
77362;SDS011;66428;47.322;9.432;2023-04-15T03:45:18;2.17;;;1.23;;
77362;SDS011;66428;47.322;9.432;2023-04-15T03:47:44;2.88;;;1.02;;
77362;SDS011;66428;47.322;9.432;2023-04-15T03:50:11;5.03;;;1.25;;
77362;SDS011;66428;47.322;9.432;2023-04-15T03:52:40;3.47;;;1.00;;
77362;SDS011;66428;47.322;9.432;2023-04-15T03:55:06;2.83;;;0.90;;
77362;SDS011;66428;47.322;9.432;2023-04-15T03:57:33;1.67;;;1.00;;
77362;SDS011;66428;47.322;9.432;2023-04-15T04:00:06;3.38;;;1.25;;
77362;SDS011;66428;47.322;9.432;2023-04-15T04:02:40;3.80;;;1.00;;
77362;SDS011;66428;47.322;9.432;2023-04-15T04:05:11;2.55;;;1.23;;
77362;SDS011;66428;47.322;9.432;2023-04-15T04:07:38;3.70;;;1.30;;
77362;SDS011;66428;47.322;9.432;2023-04-15T04:10:05;3.35;;;1.05;;
77362;SDS011;66428;47.322;9.432;2023-04-15T04:12:34;5.07;;;1.85;;
77362;SDS011;66428;47.322;9.432;2023-04-15T04:15:00;3.85;;;1.48;;
77362;SDS011;66428;47.322;9.432;2023-04-15T04:17:27;4.40;;;1.30;;
77362;SDS011;66428;47.322;9.432;2023-04-15T04:19:58;3.38;;;1.40;;
77362;SDS011;66428;47.322;9.432;2023-04-15T04:22:27;2.50;;;1.25;;
77362;SDS011;66428;47.322;9.432;2023-04-15T04:24:53;3.45;;;1.83;;
77362;SDS011;66428;47.322;9.432;2023-04-15T04:27:27;3.60;;;1.42;;
77362;SDS011;66428;47.322;9.432;2023-04-15T04:29:54;3.88;;;1.58;;
77362;SDS011;66428;47.322;9.432;2023-04-15T04:32:25;5.05;;;1.50;;
77362;SDS011;66428;47.322;9.432;2023-04-15T04:34:51;3.00;;;1.35;;
77362;SDS011;66428;47.322;9.432;2023-04-15T04:37:23;4.15;;;1.25;;
77362;SDS011;66428;47.322;9.432;2023-04-15T04:39:52;3.15;;;1.50;;
77362;SDS011;66428;47.322;9.432;2023-04-15T04:42:19;15.82;;;14.32;;
77362;SDS011;66428;47.322;9.432;2023-04-15T04:44:48;13.73;;;10.82;;
77362;SDS011;66428;47.322;9.432;2023-04-15T04:47:16;15.20;;;11.35;;
77362;SDS011;66428;47.322;9.432;2023-04-15T04:49:45;14.10;;;9.82;;
77362;SDS011;66428;47.322;9.432;2023-04-15T04:52:14;16.55;;;12.88;;
77362;SDS011;66428;47.322;9.432;2023-04-15T04:54:43;13.95;;;11.07;;
77362;SDS011;66428;47.322;9.432;2023-04-15T04:57:12;10.57;;;6.80;;
77362;SDS011;66428;47.322;9.432;2023-04-15T04:59:39;7.13;;;5.20;;
77362;SDS011;66428;47.322;9.432;2023-04-15T05:02:05;3.72;;;2.63;;
77362;SDS011;66428;47.322;9.432;2023-04-15T05:04:32;4.82;;;2.33;;
77362;SDS011;66428;47.322;9.432;2023-04-15T05:07:04;5.35;;;1.70;;
77362;SDS011;66428;47.322;9.432;2023-04-15T05:09:33;4.18;;;2.17;;
77362;SDS011;66428;47.322;9.432;2023-04-15T05:12:04;3.85;;;2.05;;
77362;SDS011;66428;47.322;9.432;2023-04-15T05:14:34;4.00;;;1.77;;
77362;SDS011;66428;47.322;9.432;2023-04-15T05:17:03;7.78;;;3.70;;
77362;SDS011;66428;47.322;9.432;2023-04-15T05:19:32;7.88;;;4.10;;
77362;SDS011;66428;47.322;9.432;2023-04-15T05:21:59;10.82;;;4.65;;
77362;SDS011;66428;47.322;9.432;2023-04-15T05:24:28;13.20;;;5.30;;
77362;SDS011;66428;47.322;9.432;2023-04-15T05:26:54;10.35;;;4.80;;
77362;SDS011;66428;47.322;9.432;2023-04-15T05:29:22;8.40;;;3.25;;
77362;SDS011;66428;47.322;9.432;2023-04-15T05:31:48;5.03;;;2.45;;
77362;SDS011;66428;47.322;9.432;2023-04-15T05:34:18;4.40;;;2.25;;
77362;SDS011;66428;47.322;9.432;2023-04-15T05:36:46;3.03;;;1.80;;
77362;SDS011;66428;47.322;9.432;2023-04-15T05:39:13;4.00;;;1.90;;
77362;SDS011;66428;47.322;9.432;2023-04-15T05:41:39;4.03;;;1.80;;
77362;SDS011;66428;47.322;9.432;2023-04-15T05:46:35;4.63;;;2.25;;
77362;SDS011;66428;47.322;9.432;2023-04-15T05:49:01;5.38;;;2.85;;
77362;SDS011;66428;47.322;9.432;2023-04-15T05:51:28;4.75;;;2.35;;
77362;SDS011;66428;47.322;9.432;2023-04-15T05:53:57;7.25;;;2.63;;
77362;SDS011;66428;47.322;9.432;2023-04-15T05:56:24;4.30;;;2.90;;
77362;SDS011;66428;47.322;9.432;2023-04-15T05:58:54;5.28;;;2.75;;
77362;SDS011;66428;47.322;9.432;2023-04-15T06:01:25;4.47;;;2.33;;
77362;SDS011;66428;47.322;9.432;2023-04-15T06:03:52;7.10;;;3.30;;
77362;SDS011;66428;47.322;9.432;2023-04-15T06:06:21;6.90;;;2.50;;
77362;SDS011;66428;47.322;9.432;2023-04-15T06:08:50;4.80;;;2.63;;
77362;SDS011;66428;47.322;9.432;2023-04-15T06:11:20;4.38;;;2.47;;
77362;SDS011;66428;47.322;9.432;2023-04-15T06:13:49;4.57;;;2.33;;
77362;SDS011;66428;47.322;9.432;2023-04-15T06:16:16;5.53;;;2.40;;
77362;SDS011;66428;47.322;9.432;2023-04-15T06:18:45;5.72;;;2.03;;
77362;SDS011;66428;47.322;9.432;2023-04-15T06:21:14;3.90;;;1.80;;
77362;SDS011;66428;47.322;9.432;2023-04-15T06:23:40;3.17;;;1.83;;
77362;SDS011;66428;47.322;9.432;2023-04-15T06:26:11;3.83;;;1.77;;
77362;SDS011;66428;47.322;9.432;2023-04-15T06:28:40;4.00;;;1.83;;
77362;SDS011;66428;47.322;9.432;2023-04-15T06:31:09;3.88;;;1.92;;
77362;SDS011;66428;47.322;9.432;2023-04-15T06:33:36;4.30;;;1.73;;
77362;SDS011;66428;47.322;9.432;2023-04-15T06:36:03;6.22;;;1.90;;
77362;SDS011;66428;47.322;9.432;2023-04-15T06:38:32;5.00;;;1.88;;
77362;SDS011;66428;47.322;9.432;2023-04-15T06:41:00;3.17;;;1.50;;
77362;SDS011;66428;47.322;9.432;2023-04-15T06:45:53;2.75;;;1.48;;
77362;SDS011;66428;47.322;9.432;2023-04-15T06:48:20;2.83;;;1.38;;
77362;SDS011;66428;47.322;9.432;2023-04-15T06:50:53;2.78;;;1.45;;
77362;SDS011;66428;47.322;9.432;2023-04-15T06:53:24;5.22;;;1.90;;
77362;SDS011;66428;47.322;9.432;2023-04-15T06:55:53;3.75;;;1.88;;
77362;SDS011;66428;47.322;9.432;2023-04-15T06:58:22;5.57;;;1.80;;
77362;SDS011;66428;47.322;9.432;2023-04-15T07:00:53;4.93;;;1.80;;
77362;SDS011;66428;47.322;9.432;2023-04-15T07:03:22;9.10;;;2.10;;
77362;SDS011;66428;47.322;9.432;2023-04-15T07:05:49;4.80;;;2.78;;
77362;SDS011;66428;47.322;9.432;2023-04-15T07:08:20;6.72;;;2.45;;
77362;SDS011;66428;47.322;9.432;2023-04-15T07:10:46;5.95;;;3.30;;
77362;SDS011;66428;47.322;9.432;2023-04-15T07:15:39;5.40;;;2.78;;
77362;SDS011;66428;47.322;9.432;2023-04-15T07:20:33;9.15;;;3.65;;
77362;SDS011;66428;47.322;9.432;2023-04-15T07:23:01;11.70;;;3.90;;
77362;SDS011;66428;47.322;9.432;2023-04-15T07:25:28;9.50;;;4.85;;
77362;SDS011;66428;47.322;9.432;2023-04-15T07:27:57;5.80;;;2.67;;
77362;SDS011;66428;47.322;9.432;2023-04-15T07:30:26;4.28;;;2.33;;
77362;SDS011;66428;47.322;9.432;2023-04-15T07:32:53;5.10;;;1.52;;
77362;SDS011;66428;47.322;9.432;2023-04-15T07:35:22;5.13;;;2.30;;
77362;SDS011;66428;47.322;9.432;2023-04-15T07:37:53;7.53;;;3.00;;
77362;SDS011;66428;47.322;9.432;2023-04-15T07:40:20;4.47;;;3.08;;
77362;SDS011;66428;47.322;9.432;2023-04-15T07:42:49;7.65;;;2.70;;
77362;SDS011;66428;47.322;9.432;2023-04-15T07:45:15;3.63;;;2.17;;
77362;SDS011;66428;47.322;9.432;2023-04-15T07:47:44;7.13;;;2.20;;
77362;SDS011;66428;47.322;9.432;2023-04-15T07:50:17;5.95;;;1.83;;
77362;SDS011;66428;47.322;9.432;2023-04-15T07:52:47;3.38;;;1.30;;
77362;SDS011;66428;47.322;9.432;2023-04-15T07:55:17;2.50;;;1.60;;
77362;SDS011;66428;47.322;9.432;2023-04-15T07:57:45;3.92;;;1.63;;
77362;SDS011;66428;47.322;9.432;2023-04-15T08:00:12;3.05;;;1.50;;
77362;SDS011;66428;47.322;9.432;2023-04-15T08:02:42;3.17;;;1.77;;
77362;SDS011;66428;47.322;9.432;2023-04-15T08:05:09;3.85;;;1.40;;
77362;SDS011;66428;47.322;9.432;2023-04-15T08:07:40;4.40;;;1.52;;
77362;SDS011;66428;47.322;9.432;2023-04-15T08:10:14;3.20;;;1.45;;
77362;SDS011;66428;47.322;9.432;2023-04-15T08:12:46;2.28;;;1.10;;
77362;SDS011;66428;47.322;9.432;2023-04-15T08:15:20;3.58;;;1.42;;
77362;SDS011;66428;47.322;9.432;2023-04-15T08:17:49;6.50;;;2.10;;
77362;SDS011;66428;47.322;9.432;2023-04-15T08:20:15;4.25;;;1.13;;
77362;SDS011;66428;47.322;9.432;2023-04-15T08:22:44;4.38;;;1.20;;
77362;SDS011;66428;47.322;9.432;2023-04-15T08:25:17;4.90;;;1.30;;
77362;SDS011;66428;47.322;9.432;2023-04-15T08:27:45;2.00;;;1.02;;
77362;SDS011;66428;47.322;9.432;2023-04-15T08:30:11;2.20;;;1.33;;
77362;SDS011;66428;47.322;9.432;2023-04-15T08:32:40;3.30;;;1.35;;
77362;SDS011;66428;47.322;9.432;2023-04-15T08:35:12;5.40;;;1.58;;
77362;SDS011;66428;47.322;9.432;2023-04-15T08:37:41;3.92;;;1.45;;
77362;SDS011;66428;47.322;9.432;2023-04-15T08:42:44;5.40;;;1.42;;
77362;SDS011;66428;47.322;9.432;2023-04-15T08:45:14;2.72;;;1.13;;
77362;SDS011;66428;47.322;9.432;2023-04-15T08:47:44;2.20;;;1.02;;
77362;SDS011;66428;47.322;9.432;2023-04-15T08:50:11;3.55;;;1.50;;
77362;SDS011;66428;47.322;9.432;2023-04-15T08:52:44;2.28;;;1.13;;
77362;SDS011;66428;47.322;9.432;2023-04-15T08:55:12;1.70;;;1.00;;
77362;SDS011;66428;47.322;9.432;2023-04-15T08:57:40;5.88;;;1.33;;
77362;SDS011;66428;47.322;9.432;2023-04-15T09:00:09;2.30;;;1.30;;
77362;SDS011;66428;47.322;9.432;2023-04-15T09:02:38;4.05;;;1.45;;
77362;SDS011;66428;47.322;9.432;2023-04-15T09:05:05;2.60;;;1.10;;
77362;SDS011;66428;47.322;9.432;2023-04-15T09:07:35;4.47;;;1.70;;
77362;SDS011;66428;47.322;9.432;2023-04-15T09:10:04;6.20;;;1.50;;
77362;SDS011;66428;47.322;9.432;2023-04-15T09:12:33;3.20;;;1.40;;
77362;SDS011;66428;47.322;9.432;2023-04-15T09:15:00;2.47;;;1.55;;
77362;SDS011;66428;47.322;9.432;2023-04-15T09:17:27;5.10;;;1.45;;
77362;SDS011;66428;47.322;9.432;2023-04-15T09:20:17;6.70;;;2.05;;
77362;SDS011;66428;47.322;9.432;2023-04-15T09:22:49;6.55;;;2.53;;
77362;SDS011;66428;47.322;9.432;2023-04-15T09:27:56;4.38;;;1.67;;
77362;SDS011;66428;47.322;9.432;2023-04-15T09:30:23;3.47;;;1.70;;
77362;SDS011;66428;47.322;9.432;2023-04-15T09:32:58;2.90;;;1.77;;
77362;SDS011;66428;47.322;9.432;2023-04-15T09:35:25;4.20;;;1.88;;
77362;SDS011;66428;47.322;9.432;2023-04-15T09:37:53;5.60;;;1.40;;
77362;SDS011;66428;47.322;9.432;2023-04-15T09:40:40;3.67;;;1.70;;
77362;SDS011;66428;47.322;9.432;2023-04-15T09:43:08;5.38;;;1.52;;
77362;SDS011;66428;47.322;9.432;2023-04-15T09:45:35;2.67;;;1.30;;
77362;SDS011;66428;47.322;9.432;2023-04-15T09:50:43;5.15;;;1.52;;
77362;SDS011;66428;47.322;9.432;2023-04-15T09:53:10;2.47;;;1.10;;
77362;SDS011;66428;47.322;9.432;2023-04-15T09:55:44;5.32;;;1.77;;
77362;SDS011;66428;47.322;9.432;2023-04-15T09:58:18;4.95;;;1.35;;
77362;SDS011;66428;47.322;9.432;2023-04-15T10:00:45;3.53;;;1.45;;
77362;SDS011;66428;47.322;9.432;2023-04-15T10:03:18;3.28;;;1.48;;
77362;SDS011;66428;47.322;9.432;2023-04-15T10:05:45;4.03;;;1.60;;
77362;SDS011;66428;47.322;9.432;2023-04-15T10:08:13;3.33;;;1.70;;
77362;SDS011;66428;47.322;9.432;2023-04-15T10:10:45;4.20;;;1.73;;
77362;SDS011;66428;47.322;9.432;2023-04-15T10:13:13;3.45;;;1.70;;
77362;SDS011;66428;47.322;9.432;2023-04-15T10:15:40;5.03;;;1.65;;
77362;SDS011;66428;47.322;9.432;2023-04-15T10:18:08;3.35;;;1.30;;
77362;SDS011;66428;47.322;9.432;2023-04-15T10:20:37;5.55;;;1.63;;
77362;SDS011;66428;47.322;9.432;2023-04-15T10:23:06;4.13;;;1.35;;
77362;SDS011;66428;47.322;9.432;2023-04-15T10:25:41;2.83;;;1.40;;
77362;SDS011;66428;47.322;9.432;2023-04-15T10:28:07;5.45;;;2.42;;
77362;SDS011;66428;47.322;9.432;2023-04-15T10:30:37;4.93;;;2.33;;
77362;SDS011;66428;47.322;9.432;2023-04-15T10:33:07;7.45;;;2.45;;
77362;SDS011;66428;47.322;9.432;2023-04-15T10:35:37;5.80;;;2.15;;
77362;SDS011;66428;47.322;9.432;2023-04-15T10:40:50;6.15;;;2.70;;
77362;SDS011;66428;47.322;9.432;2023-04-15T10:43:25;3.92;;;2.13;;
77362;SDS011;66428;47.322;9.432;2023-04-15T10:45:55;2.63;;;1.98;;
77362;SDS011;66428;47.322;9.432;2023-04-15T10:48:24;6.13;;;2.00;;
77362;SDS011;66428;47.322;9.432;2023-04-15T10:50:59;3.97;;;1.40;;
77362;SDS011;66428;47.322;9.432;2023-04-15T10:53:32;4.32;;;1.50;;
77362;SDS011;66428;47.322;9.432;2023-04-15T10:58:36;3.40;;;1.20;;
77362;SDS011;66428;47.322;9.432;2023-04-15T11:01:06;2.13;;;1.23;;
77362;SDS011;66428;47.322;9.432;2023-04-15T11:03:38;2.10;;;1.30;;
77362;SDS011;66428;47.322;9.432;2023-04-15T11:06:08;3.00;;;1.30;;
77362;SDS011;66428;47.322;9.432;2023-04-15T11:08:56;4.38;;;1.55;;
77362;SDS011;66428;47.322;9.432;2023-04-15T11:14:15;1.67;;;1.10;;
77362;SDS011;66428;47.322;9.432;2023-04-15T11:16:44;3.22;;;1.52;;
77362;SDS011;66428;47.322;9.432;2023-04-15T11:19:13;2.90;;;1.10;;
77362;SDS011;66428;47.322;9.432;2023-04-15T11:21:42;2.20;;;1.08;;
77362;SDS011;66428;47.322;9.432;2023-04-15T11:24:22;6.25;;;1.52;;
77362;SDS011;66428;47.322;9.432;2023-04-15T11:27:00;4.22;;;1.23;;
77362;SDS011;66428;47.322;9.432;2023-04-15T11:29:30;3.45;;;1.27;;
77362;SDS011;66428;47.322;9.432;2023-04-15T11:32:07;3.47;;;1.10;;
77362;SDS011;66428;47.322;9.432;2023-04-15T11:34:39;3.10;;;1.20;;
77362;SDS011;66428;47.322;9.432;2023-04-15T11:37:08;2.15;;;1.10;;
77362;SDS011;66428;47.322;9.432;2023-04-15T11:39:36;3.05;;;1.48;;
77362;SDS011;66428;47.322;9.432;2023-04-15T11:42:02;3.63;;;1.63;;
77362;SDS011;66428;47.322;9.432;2023-04-15T11:44:31;2.67;;;1.27;;
77362;SDS011;66428;47.322;9.432;2023-04-15T11:47:00;2.70;;;1.42;;
77362;SDS011;66428;47.322;9.432;2023-04-15T11:49:31;4.25;;;1.45;;
77362;SDS011;66428;47.322;9.432;2023-04-15T11:52:09;2.45;;;1.00;;
77362;SDS011;66428;47.322;9.432;2023-04-15T11:54:38;3.50;;;1.33;;
77362;SDS011;66428;47.322;9.432;2023-04-15T11:59:42;3.65;;;1.75;;
77362;SDS011;66428;47.322;9.432;2023-04-15T12:02:12;4.10;;;1.60;;
77362;SDS011;66428;47.322;9.432;2023-04-15T12:04:43;30.00;;;13.18;;
77362;SDS011;66428;47.322;9.432;2023-04-15T12:07:11;10.45;;;4.60;;
77362;SDS011;66428;47.322;9.432;2023-04-15T12:09:40;5.00;;;1.80;;
77362;SDS011;66428;47.322;9.432;2023-04-15T12:12:09;2.58;;;1.65;;
77362;SDS011;66428;47.322;9.432;2023-04-15T12:14:38;3.80;;;1.65;;
77362;SDS011;66428;47.322;9.432;2023-04-15T12:17:05;5.43;;;2.10;;
77362;SDS011;66428;47.322;9.432;2023-04-15T12:19:35;5.45;;;2.20;;
77362;SDS011;66428;47.322;9.432;2023-04-15T12:22:05;3.55;;;2.10;;
77362;SDS011;66428;47.322;9.432;2023-04-15T12:24:32;3.97;;;2.28;;
77362;SDS011;66428;47.322;9.432;2023-04-15T12:27:05;4.28;;;1.67;;
77362;SDS011;66428;47.322;9.432;2023-04-15T12:29:32;4.78;;;3.42;;
77362;SDS011;66428;47.322;9.432;2023-04-15T12:34:36;7.30;;;3.50;;
77362;SDS011;66428;47.322;9.432;2023-04-15T12:37:05;3.60;;;2.20;;
77362;SDS011;66428;47.322;9.432;2023-04-15T12:39:38;9.90;;;4.88;;
77362;SDS011;66428;47.322;9.432;2023-04-15T12:42:05;5.45;;;2.47;;
77362;SDS011;66428;47.322;9.432;2023-04-15T12:44:34;6.10;;;2.40;;
77362;SDS011;66428;47.322;9.432;2023-04-15T12:47:06;4.82;;;2.72;;
77362;SDS011;66428;47.322;9.432;2023-04-15T12:49:33;3.58;;;1.67;;
77362;SDS011;66428;47.322;9.432;2023-04-15T12:52:05;5.35;;;2.17;;
77362;SDS011;66428;47.322;9.432;2023-04-15T12:54:34;3.28;;;1.67;;
77362;SDS011;66428;47.322;9.432;2023-04-15T12:57:03;6.97;;;2.30;;
77362;SDS011;66428;47.322;9.432;2023-04-15T12:59:35;4.03;;;1.63;;
77362;SDS011;66428;47.322;9.432;2023-04-15T13:02:02;3.10;;;1.38;;
77362;SDS011;66428;47.322;9.432;2023-04-15T13:04:31;2.22;;;1.30;;
77362;SDS011;66428;47.322;9.432;2023-04-15T13:07:00;4.15;;;1.20;;
77362;SDS011;66428;47.322;9.432;2023-04-15T13:09:27;5.78;;;1.67;;
77362;SDS011;66428;47.322;9.432;2023-04-15T13:11:54;5.50;;;1.50;;
77362;SDS011;66428;47.322;9.432;2023-04-15T13:14:25;4.35;;;1.23;;
77362;SDS011;66428;47.322;9.432;2023-04-15T13:16:52;3.00;;;1.27;;
77362;SDS011;66428;47.322;9.432;2023-04-15T13:19:19;2.83;;;1.08;;
77362;SDS011;66428;47.322;9.432;2023-04-15T13:21:48;3.83;;;1.65;;
77362;SDS011;66428;47.322;9.432;2023-04-15T13:24:15;4.57;;;1.50;;
77362;SDS011;66428;47.322;9.432;2023-04-15T13:26:41;2.65;;;1.63;;
77362;SDS011;66428;47.322;9.432;2023-04-15T13:29:12;4.38;;;1.27;;
77362;SDS011;66428;47.322;9.432;2023-04-15T13:31:43;3.38;;;1.75;;
77362;SDS011;66428;47.322;9.432;2023-04-15T13:34:10;4.10;;;2.35;;
77362;SDS011;66428;47.322;9.432;2023-04-15T13:36:40;3.83;;;1.73;;
77362;SDS011;66428;47.322;9.432;2023-04-15T13:39:07;5.70;;;1.85;;
77362;SDS011;66428;47.322;9.432;2023-04-15T13:41:33;3.42;;;1.88;;
77362;SDS011;66428;47.322;9.432;2023-04-15T13:43:59;5.65;;;1.40;;
77362;SDS011;66428;47.322;9.432;2023-04-15T13:46:26;3.67;;;1.42;;
77362;SDS011;66428;47.322;9.432;2023-04-15T13:48:55;3.20;;;1.58;;
77362;SDS011;66428;47.322;9.432;2023-04-15T13:51:23;4.40;;;1.50;;
77362;SDS011;66428;47.322;9.432;2023-04-15T13:53:52;4.38;;;1.48;;
77362;SDS011;66428;47.322;9.432;2023-04-15T13:56:18;4.70;;;1.67;;
77362;SDS011;66428;47.322;9.432;2023-04-15T13:58:47;3.08;;;1.13;;
77362;SDS011;66428;47.322;9.432;2023-04-15T14:01:13;5.55;;;1.30;;
77362;SDS011;66428;47.322;9.432;2023-04-15T14:03:43;3.22;;;1.52;;
77362;SDS011;66428;47.322;9.432;2023-04-15T14:06:10;2.35;;;1.83;;
77362;SDS011;66428;47.322;9.432;2023-04-15T14:08:39;3.03;;;1.30;;
77362;SDS011;66428;47.322;9.432;2023-04-15T14:11:08;2.58;;;1.33;;
77362;SDS011;66428;47.322;9.432;2023-04-15T14:13:35;2.60;;;1.40;;
77362;SDS011;66428;47.322;9.432;2023-04-15T14:16:04;4.72;;;1.92;;
77362;SDS011;66428;47.322;9.432;2023-04-15T14:18:33;3.17;;;1.42;;
77362;SDS011;66428;47.322;9.432;2023-04-15T14:21:00;4.10;;;1.65;;
77362;SDS011;66428;47.322;9.432;2023-04-15T14:23:29;7.55;;;3.47;;
77362;SDS011;66428;47.322;9.432;2023-04-15T14:26:00;17.15;;;10.15;;
77362;SDS011;66428;47.322;9.432;2023-04-15T14:28:31;11.80;;;7.45;;
77362;SDS011;66428;47.322;9.432;2023-04-15T14:30:58;8.27;;;4.43;;
77362;SDS011;66428;47.322;9.432;2023-04-15T14:33:24;5.43;;;2.88;;
77362;SDS011;66428;47.322;9.432;2023-04-15T14:38:17;27.45;;;17.30;;
77362;SDS011;66428;47.322;9.432;2023-04-15T14:40:44;12.70;;;8.60;;
77362;SDS011;66428;47.322;9.432;2023-04-15T14:43:10;7.88;;;3.17;;
77362;SDS011;66428;47.322;9.432;2023-04-15T14:45:39;6.32;;;3.33;;
77362;SDS011;66428;47.322;9.432;2023-04-15T14:48:13;4.78;;;2.33;;
77362;SDS011;66428;47.322;9.432;2023-04-15T14:50:44;5.78;;;2.22;;
77362;SDS011;66428;47.322;9.432;2023-04-15T14:53:13;4.47;;;2.35;;
77362;SDS011;66428;47.322;9.432;2023-04-15T14:55:42;4.97;;;2.10;;
77362;SDS011;66428;47.322;9.432;2023-04-15T14:58:11;3.33;;;2.08;;
77362;SDS011;66428;47.322;9.432;2023-04-15T15:00:41;3.90;;;2.20;;
77362;SDS011;66428;47.322;9.432;2023-04-15T15:03:10;4.43;;;1.98;;
77362;SDS011;66428;47.322;9.432;2023-04-15T15:05:45;3.70;;;1.70;;
77362;SDS011;66428;47.322;9.432;2023-04-15T15:08:18;3.05;;;1.55;;
77362;SDS011;66428;47.322;9.432;2023-04-15T15:10:50;4.30;;;1.70;;
77362;SDS011;66428;47.322;9.432;2023-04-15T15:13:19;5.03;;;1.70;;
77362;SDS011;66428;47.322;9.432;2023-04-15T15:15:50;3.38;;;1.75;;
77362;SDS011;66428;47.322;9.432;2023-04-15T15:18:19;3.38;;;1.90;;
77362;SDS011;66428;47.322;9.432;2023-04-15T15:20:46;4.05;;;2.10;;
77362;SDS011;66428;47.322;9.432;2023-04-15T15:23:15;4.45;;;2.28;;
77362;SDS011;66428;47.322;9.432;2023-04-15T15:25:42;4.97;;;2.35;;
77362;SDS011;66428;47.322;9.432;2023-04-15T15:28:09;2.85;;;1.58;;
77362;SDS011;66428;47.322;9.432;2023-04-15T15:30:37;3.40;;;1.52;;
77362;SDS011;66428;47.322;9.432;2023-04-15T15:35:31;2.35;;;1.55;;
77362;SDS011;66428;47.322;9.432;2023-04-15T15:38:02;4.85;;;2.08;;
77362;SDS011;66428;47.322;9.432;2023-04-15T15:40:29;2.80;;;1.60;;